PWSweather.com
Personal Weather Stations
Station Observations
BAYPARK
Bay Park, Ny, East Rockaway, NY 11518

Bay Park, NyEast Rockaway, NY 11518

Lat: 40.6310098, Lon: -73.6727287

Elevation: 11

Station Type: AcuRite Pro

https://www.awekas.at/en/instrument.php?id=14894

High Low Average
Temperature 83.4°F28.6°C 56.5°F13.6°C 67.8°F19.9°C
Dew Point 58.0°F14.4°C 54.1°F12.3°C 55.7°F13.2°C
Winds 6.4 mph 10.3 kmh Calm Calm 3.0 mph SW4.8 kmh SW
Wind Gusts 10.4 mph16.7 kmh -- 4.0 mph6.4 kmh
Humidity 96% 40% 68%
Pressure 29.95 in1014.2 mb 29.75 in1007.5 mb -
Precipitation 0.07 in1.8 mm - -
Hour Temp Dew Point Humidity Winds Wind Gusts Pressure Precip Precip Rate Daily Precip Total
12:00 AM 61.5°F16.4°C 56.3°F13.5°C 83% 3.7 mph NE6.0 kmh NE 5.3 mph8.5 kmh 29.75 in1007.5 mb 0.00 in0.0 mm 0.00 in0.0 mm 0.00 in0.0 mm
12:05 AM 61.5°F16.4°C 56.3°F13.5°C 83% 3.9 mph SE6.3 kmh SE 5.3 mph8.5 kmh 29.75 in1007.5 mb 0.00 in0.0 mm 0.00 in0.0 mm 0.00 in0.0 mm
12:10 AM 61.5°F16.4°C 56.3°F13.5°C 83% 4.1 mph E6.6 kmh E 9.4 mph15.1 kmh 29.75 in1007.5 mb 0.00 in0.0 mm 0.00 in0.0 mm 0.00 in0.0 mm
12:15 AM 61.5°F16.4°C 56.3°F13.5°C 83% 3.8 mph ESE6.1 kmh ESE 7.3 mph11.7 kmh 29.75 in1007.5 mb 0.00 in0.0 mm 0.00 in0.0 mm 0.00 in0.0 mm
12:20 AM 61.5°F16.4°C 56.3°F13.5°C 83% 4.7 mph ESE7.6 kmh ESE 7.8 mph12.6 kmh 29.75 in1007.5 mb 0.00 in0.0 mm 0.00 in0.0 mm 0.00 in0.0 mm
12:25 AM 61.5°F16.4°C 56.3°F13.5°C 83% 4.2 mph NE6.8 kmh NE 9.9 mph15.9 kmh 29.75 in1007.5 mb 0.00 in0.0 mm 0.00 in0.0 mm 0.00 in0.0 mm
12:30 AM 61.4°F16.3°C 56.5°F13.6°C 84% 5.0 mph ENE8.0 kmh ENE 8.3 mph13.4 kmh 29.75 in1007.5 mb 0.00 in0.0 mm 0.00 in0.0 mm 0.00 in0.0 mm
12:35 AM 61.0°F16.1°C 56.8°F13.8°C 86% 4.7 mph N7.6 kmh N 7.3 mph11.7 kmh 29.75 in1007.5 mb 0.00 in0.0 mm 0.00 in0.0 mm 0.00 in0.0 mm
12:40 AM 60.6°F15.9°C 57.0°F13.9°C 88% 3.6 mph WSW5.8 kmh WSW 6.8 mph10.9 kmh 29.76 in1007.8 mb 0.00 in0.0 mm 0.00 in0.0 mm 0.00 in0.0 mm
12:45 AM 60.0°F15.6°C 57.1°F13.9°C 90% 4.3 mph SW6.9 kmh SW 7.8 mph12.6 kmh 29.76 in1007.8 mb 0.00 in0.0 mm 0.00 in0.0 mm 0.00 in0.0 mm
12:50 AM 59.6°F15.3°C 57.2°F14.0°C 92% 3.5 mph E5.6 kmh E 6.8 mph10.9 kmh 29.76 in1007.8 mb 0.00 in0.0 mm 0.00 in0.0 mm 0.00 in0.0 mm
12:55 AM 59.4°F15.2°C 57.2°F14.0°C 93% 4.0 mph SSE6.4 kmh SSE 6.3 mph10.1 kmh 29.76 in1007.8 mb 0.00 in0.0 mm 0.00 in0.0 mm 0.00 in0.0 mm
01:00 AM 59.1°F15.1°C 57.1°F13.9°C 93% 4.2 mph ESE6.8 kmh ESE 7.3 mph11.7 kmh 29.76 in1007.8 mb 0.01 in0.3 mm 0.01 in0.3 mm 0.01 in0.3 mm
01:05 AM 58.9°F14.9°C 57.2°F14.0°C 94% 3.8 mph WNW6.1 kmh WNW 6.3 mph10.1 kmh 29.76 in1007.8 mb 0.01 in0.3 mm 0.00 in0.0 mm 0.01 in0.3 mm
01:10 AM 58.7°F14.8°C 57.0°F13.9°C 94% 4.6 mph NNE7.4 kmh NNE 6.8 mph10.9 kmh 29.76 in1007.8 mb 0.01 in0.3 mm 0.00 in0.0 mm 0.01 in0.3 mm
01:15 AM 58.5°F14.7°C 56.9°F13.8°C 94% 3.8 mph E6.1 kmh E 6.8 mph10.9 kmh 29.76 in1007.8 mb 0.01 in0.3 mm 0.00 in0.0 mm 0.01 in0.3 mm
01:20 AM 58.4°F14.7°C 57.0°F13.9°C 95% 4.0 mph E6.4 kmh E 7.3 mph11.7 kmh 29.76 in1007.8 mb 0.01 in0.3 mm 0.00 in0.0 mm 0.01 in0.3 mm
01:25 AM 58.3°F14.6°C 56.9°F13.8°C 95% 5.1 mph ENE8.2 kmh ENE 8.9 mph14.3 kmh 29.76 in1007.8 mb 0.02 in0.5 mm 0.12 in3.0 mm 0.02 in0.5 mm
01:30 AM 58.3°F14.6°C 56.8°F13.8°C 95% 3.9 mph E6.3 kmh E 6.8 mph10.9 kmh 29.76 in1007.8 mb 0.02 in0.5 mm 0.00 in0.0 mm 0.02 in0.5 mm
01:35 AM 58.1°F14.5°C 56.6°F13.7°C 95% 5.4 mph NNE8.7 kmh NNE 9.4 mph15.1 kmh 29.76 in1007.8 mb 0.03 in0.8 mm 0.12 in3.0 mm 0.03 in0.8 mm
01:40 AM 57.9°F14.4°C 56.5°F13.6°C 95% 4.0 mph ESE6.4 kmh ESE 5.8 mph9.3 kmh 29.76 in1007.8 mb 0.04 in1.0 mm 0.12 in3.0 mm 0.04 in1.0 mm
01:45 AM 57.9°F14.4°C 56.6°F13.7°C 95% 3.3 mph SW5.3 kmh SW 6.8 mph10.9 kmh 29.76 in1007.8 mb 0.05 in1.3 mm 0.12 in3.0 mm 0.05 in1.3 mm
01:50 AM 57.9°F14.4°C 56.8°F13.8°C 96% 4.2 mph E6.8 kmh E 7.3 mph11.7 kmh 29.76 in1007.8 mb 0.07 in1.8 mm 0.24 in6.1 mm 0.07 in1.8 mm
01:55 AM 57.7°F14.3°C 56.6°F13.7°C 96% 4.0 mph E6.4 kmh E 5.8 mph9.3 kmh 29.76 in1007.8 mb 0.07 in1.8 mm 0.00 in0.0 mm 0.07 in1.8 mm
02:00 AM 57.7°F14.3°C 56.6°F13.7°C 96% 4.0 mph WNW6.4 kmh WNW 7.3 mph11.7 kmh 29.76 in1007.8 mb 0.06 in1.5 mm 0.00 in0.0 mm 0.07 in1.8 mm
02:05 AM 57.7°F14.3°C 56.6°F13.7°C 96% 3.9 mph W6.3 kmh W 5.3 mph8.5 kmh 29.75 in1007.5 mb 0.06 in1.5 mm 0.00 in0.0 mm 0.07 in1.8 mm
02:10 AM 57.6°F14.2°C 56.4°F13.6°C 96% 3.4 mph E5.5 kmh E 5.8 mph9.3 kmh 29.75 in1007.5 mb 0.06 in1.5 mm 0.00 in0.0 mm 0.07 in1.8 mm
02:15 AM 57.5°F14.2°C 55.9°F13.3°C 94% 3.9 mph SE6.3 kmh SE 8.3 mph13.4 kmh 29.75 in1007.5 mb 0.06 in1.5 mm 0.00 in0.0 mm 0.07 in1.8 mm
02:20 AM 57.4°F14.1°C 55.7°F13.2°C 94% 4.6 mph NE7.4 kmh NE 7.8 mph12.6 kmh 29.75 in1007.5 mb 0.06 in1.5 mm 0.00 in0.0 mm 0.07 in1.8 mm
02:25 AM 57.3°F14.1°C 55.6°F13.1°C 94% 6.4 mph NE10.3 kmh NE 8.9 mph14.3 kmh 29.75 in1007.5 mb 0.05 in1.3 mm 0.00 in0.0 mm 0.07 in1.8 mm
02:30 AM 57.2°F14.0°C 55.5°F13.1°C 94% 4.8 mph NE7.7 kmh NE 7.8 mph12.6 kmh 29.75 in1007.5 mb 0.05 in1.3 mm 0.00 in0.0 mm 0.07 in1.8 mm
02:35 AM 57.2°F14.0°C 55.5°F13.1°C 94% 3.4 mph ENE5.5 kmh ENE 5.3 mph8.5 kmh 29.75 in1007.5 mb 0.04 in1.0 mm 0.00 in0.0 mm 0.07 in1.8 mm
02:40 AM 57.2°F14.0°C 55.5°F13.1°C 94% 4.6 mph ESE7.4 kmh ESE 7.3 mph11.7 kmh 29.75 in1007.5 mb 0.03 in0.8 mm 0.00 in0.0 mm 0.07 in1.8 mm
02:45 AM 57.1°F13.9°C 55.4°F13.0°C 94% 4.2 mph SW6.8 kmh SW 6.8 mph10.9 kmh 29.75 in1007.5 mb 0.02 in0.5 mm 0.00 in0.0 mm 0.07 in1.8 mm
02:50 AM 57.0°F13.9°C 55.3°F12.9°C 94% 3.7 mph E6.0 kmh E 6.3 mph10.1 kmh 29.75 in1007.5 mb 0.00 in0.0 mm 0.00 in0.0 mm 0.07 in1.8 mm
02:55 AM 57.0°F13.9°C 55.3°F12.9°C 94% 3.5 mph S5.6 kmh S 6.8 mph10.9 kmh 29.75 in1007.5 mb 0.00 in0.0 mm 0.00 in0.0 mm 0.07 in1.8 mm
03:00 AM 56.9°F13.8°C 55.2°F12.9°C 94% 4.0 mph SE6.4 kmh SE 8.9 mph14.3 kmh 29.75 in1007.5 mb 0.00 in0.0 mm 0.00 in0.0 mm 0.07 in1.8 mm
03:05 AM 56.8°F13.8°C 55.2°F12.9°C 94% 3.3 mph WNW5.3 kmh WNW 5.3 mph8.5 kmh 29.75 in1007.5 mb 0.00 in0.0 mm 0.00 in0.0 mm 0.07 in1.8 mm
03:10 AM 56.8°F13.8°C 55.4°F13.0°C 95% 4.3 mph NW6.9 kmh NW 6.3 mph10.1 kmh 29.75 in1007.5 mb 0.00 in0.0 mm 0.00 in0.0 mm 0.07 in1.8 mm
03:15 AM 56.8°F13.8°C 55.5°F13.1°C 95% 3.5 mph SE5.6 kmh SE 10.4 mph16.7 kmh 29.75 in1007.5 mb 0.00 in0.0 mm 0.00 in0.0 mm 0.07 in1.8 mm
03:20 AM 56.9°F13.8°C 55.8°F13.2°C 96% 4.2 mph E6.8 kmh E 6.8 mph10.9 kmh 29.76 in1007.8 mb 0.00 in0.0 mm 0.00 in0.0 mm 0.07 in1.8 mm
03:25 AM 57.0°F13.9°C 55.9°F13.3°C 96% 3.4 mph N5.5 kmh N 5.8 mph9.3 kmh 29.76 in1007.8 mb 0.00 in0.0 mm 0.00 in0.0 mm 0.07 in1.8 mm
03:30 AM 57.0°F13.9°C 55.9°F13.3°C 96% 2.9 mph NW4.7 kmh NW 4.7 mph7.6 kmh 29.77 in1008.1 mb 0.00 in0.0 mm 0.00 in0.0 mm 0.07 in1.8 mm
03:35 AM 57.1°F13.9°C 55.8°F13.2°C 95% 3.5 mph NE5.6 kmh NE 6.3 mph10.1 kmh 29.77 in1008.1 mb 0.00 in0.0 mm 0.00 in0.0 mm 0.07 in1.8 mm
03:40 AM 57.2°F14.0°C 55.8°F13.2°C 95% 3.5 mph SE5.6 kmh SE 5.8 mph9.3 kmh 29.77 in1008.1 mb 0.00 in0.0 mm 0.00 in0.0 mm 0.07 in1.8 mm
03:45 AM 57.4°F14.1°C 55.7°F13.2°C 94% 3.5 mph N5.6 kmh N 6.3 mph10.1 kmh 29.77 in1008.1 mb 0.00 in0.0 mm 0.00 in0.0 mm 0.07 in1.8 mm
03:50 AM 57.4°F14.1°C 55.7°F13.2°C 94% 2.8 mph E4.5 kmh E 4.2 mph6.8 kmh 29.77 in1008.1 mb 0.00 in0.0 mm 0.00 in0.0 mm 0.07 in1.8 mm
03:55 AM 57.5°F14.2°C 55.8°F13.2°C 94% 2.8 mph ENE4.5 kmh ENE 5.3 mph8.5 kmh 29.77 in1008.1 mb 0.00 in0.0 mm 0.00 in0.0 mm 0.07 in1.8 mm
04:00 AM 57.6°F14.2°C 55.6°F13.1°C 93% 2.6 mph E4.2 kmh E 4.2 mph6.8 kmh 29.77 in1008.1 mb 0.00 in0.0 mm 0.00 in0.0 mm 0.07 in1.8 mm
04:05 AM 57.6°F14.2°C 55.6°F13.1°C 93% 2.9 mph S4.7 kmh S 4.7 mph7.6 kmh 29.77 in1008.1 mb 0.00 in0.0 mm 0.00 in0.0 mm 0.07 in1.8 mm
04:10 AM 57.4°F14.1°C 55.4°F13.0°C 93% 3.2 mph E5.1 kmh E 5.8 mph9.3 kmh 29.77 in1008.1 mb 0.00 in0.0 mm 0.00 in0.0 mm 0.07 in1.8 mm
04:15 AM 57.3°F14.1°C 55.3°F12.9°C 93% 2.2 mph SSW3.5 kmh SSW 4.2 mph6.8 kmh 29.78 in1008.5 mb 0.00 in0.0 mm 0.00 in0.0 mm 0.07 in1.8 mm
04:20 AM 57.2°F14.0°C 55.2°F12.9°C 93% 2.9 mph E4.7 kmh E 5.3 mph8.5 kmh 29.78 in1008.5 mb 0.00 in0.0 mm 0.00 in0.0 mm 0.07 in1.8 mm
04:25 AM 57.2°F14.0°C 55.2°F12.9°C 93% 2.9 mph WNW4.7 kmh WNW 5.8 mph9.3 kmh 29.78 in1008.5 mb 0.00 in0.0 mm 0.00 in0.0 mm 0.07 in1.8 mm
04:30 AM 57.2°F14.0°C 55.2°F12.9°C 93% 2.7 mph NW4.3 kmh NW 6.8 mph10.9 kmh 29.78 in1008.5 mb 0.00 in0.0 mm 0.00 in0.0 mm 0.07 in1.8 mm
04:35 AM 57.0°F13.9°C 55.0°F12.8°C 93% 2.7 mph WNW4.3 kmh WNW 4.7 mph7.6 kmh 29.78 in1008.5 mb 0.00 in0.0 mm 0.00 in0.0 mm 0.07 in1.8 mm
04:40 AM 57.0°F13.9°C 55.0°F12.8°C 93% 2.4 mph SW3.9 kmh SW 3.2 mph5.1 kmh 29.79 in1008.8 mb 0.00 in0.0 mm 0.00 in0.0 mm 0.07 in1.8 mm
04:45 AM 57.0°F13.9°C 55.3°F12.9°C 94% 1.8 mph SE2.9 kmh SE 3.7 mph6.0 kmh 29.79 in1008.8 mb 0.00 in0.0 mm 0.00 in0.0 mm 0.07 in1.8 mm
04:50 AM 56.8°F13.8°C 55.1°F12.8°C 94% 2.0 mph N3.2 kmh N 3.7 mph6.0 kmh 29.79 in1008.8 mb 0.00 in0.0 mm 0.00 in0.0 mm 0.07 in1.8 mm
04:55 AM 56.8°F13.8°C 55.1°F12.8°C 94% 3.0 mph NNW4.8 kmh NNW 4.7 mph7.6 kmh 29.79 in1008.8 mb 0.00 in0.0 mm 0.00 in0.0 mm 0.07 in1.8 mm
05:00 AM 56.8°F13.8°C 55.1°F12.8°C 94% 2.8 mph N4.5 kmh N 5.3 mph8.5 kmh 29.79 in1008.8 mb 0.00 in0.0 mm 0.00 in0.0 mm 0.07 in1.8 mm
05:05 AM 56.8°F13.8°C 55.1°F12.8°C 94% 2.7 mph N4.3 kmh N 4.7 mph7.6 kmh 29.80 in1009.1 mb 0.00 in0.0 mm 0.00 in0.0 mm 0.07 in1.8 mm
05:10 AM 56.7°F13.7°C 55.0°F12.8°C 94% 3.7 mph N6.0 kmh N 6.3 mph10.1 kmh 29.80 in1009.1 mb 0.00 in0.0 mm 0.00 in0.0 mm 0.07 in1.8 mm
05:15 AM 56.7°F13.7°C 55.0°F12.8°C 94% 3.2 mph WNW5.1 kmh WNW 8.3 mph13.4 kmh 29.80 in1009.1 mb 0.00 in0.0 mm 0.00 in0.0 mm 0.07 in1.8 mm
05:20 AM 56.7°F13.7°C 55.0°F12.8°C 94% 2.9 mph W4.7 kmh W 3.7 mph6.0 kmh 29.80 in1009.1 mb 0.00 in0.0 mm 0.00 in0.0 mm 0.07 in1.8 mm
05:25 AM 56.7°F13.7°C 55.0°F12.8°C 94% 2.8 mph S4.5 kmh S 4.7 mph7.6 kmh 29.80 in1009.1 mb 0.00 in0.0 mm 0.00 in0.0 mm 0.07 in1.8 mm
05:30 AM 56.7°F13.7°C 55.0°F12.8°C 94% 2.8 mph SE4.5 kmh SE 5.3 mph8.5 kmh 29.82 in1009.8 mb 0.00 in0.0 mm 0.00 in0.0 mm 0.07 in1.8 mm
05:35 AM 56.7°F13.7°C 55.0°F12.8°C 94% 2.5 mph NE4.0 kmh NE 4.7 mph7.6 kmh 29.82 in1009.8 mb 0.00 in0.0 mm 0.00 in0.0 mm 0.07 in1.8 mm
05:40 AM 56.5°F13.6°C 54.8°F12.7°C 94% 2.4 mph S3.9 kmh S 4.2 mph6.8 kmh 29.82 in1009.8 mb 0.00 in0.0 mm 0.00 in0.0 mm 0.07 in1.8 mm
05:45 AM 56.5°F13.6°C 54.8°F12.7°C 94% 3.0 mph NNW4.8 kmh NNW 6.8 mph10.9 kmh 29.82 in1009.8 mb 0.00 in0.0 mm 0.00 in0.0 mm 0.07 in1.8 mm
05:50 AM 56.5°F13.6°C 54.8°F12.7°C 94% 3.0 mph SE4.8 kmh SE 4.7 mph7.6 kmh 29.82 in1009.8 mb 0.00 in0.0 mm 0.00 in0.0 mm 0.07 in1.8 mm
05:55 AM 56.5°F13.6°C 54.7°F12.6°C 94% 3.2 mph NNE5.1 kmh NNE 5.3 mph8.5 kmh 29.82 in1009.8 mb 0.00 in0.0 mm 0.00 in0.0 mm 0.07 in1.8 mm
06:00 AM 56.5°F13.6°C 54.5°F12.5°C 93% 2.9 mph NW4.7 kmh NW 5.8 mph9.3 kmh 29.82 in1009.8 mb 0.00 in0.0 mm 0.00 in0.0 mm 0.07 in1.8 mm
06:05 AM 56.6°F13.7°C 54.6°F12.6°C 93% 3.3 mph NE5.3 kmh NE 5.3 mph8.5 kmh 29.82 in1009.8 mb 0.00 in0.0 mm 0.00 in0.0 mm 0.07 in1.8 mm
06:10 AM 56.7°F13.7°C 54.7°F12.6°C 93% 3.5 mph N5.6 kmh N 5.8 mph9.3 kmh 29.82 in1009.8 mb 0.00 in0.0 mm 0.00 in0.0 mm 0.07 in1.8 mm
06:15 AM 56.9°F13.8°C 54.6°F12.6°C 92% 3.1 mph NW5.0 kmh NW 5.3 mph8.5 kmh 29.82 in1009.8 mb 0.00 in0.0 mm 0.00 in0.0 mm 0.07 in1.8 mm
06:20 AM 57.0°F13.9°C 54.4°F12.4°C 91% 3.2 mph NE5.1 kmh NE 6.8 mph10.9 kmh 29.82 in1009.8 mb 0.00 in0.0 mm 0.00 in0.0 mm 0.07 in1.8 mm
06:25 AM 57.2°F14.0°C 54.6°F12.6°C 91% 2.2 mph S3.5 kmh S 5.3 mph8.5 kmh 29.83 in1010.2 mb 0.00 in0.0 mm 0.00 in0.0 mm 0.07 in1.8 mm
06:30 AM 57.3°F14.1°C 54.7°F12.6°C 91% 3.0 mph E4.8 kmh E 5.3 mph8.5 kmh 29.83 in1010.2 mb 0.00 in0.0 mm 0.00 in0.0 mm 0.07 in1.8 mm
06:35 AM 57.5°F14.2°C 54.6°F12.6°C 90% 2.9 mph N4.7 kmh N 5.3 mph8.5 kmh 29.83 in1010.2 mb 0.00 in0.0 mm 0.00 in0.0 mm 0.07 in1.8 mm
06:40 AM 57.6°F14.2°C 54.7°F12.6°C 90% 2.1 mph SE3.4 kmh SE 2.7 mph4.3 kmh 29.83 in1010.2 mb 0.00 in0.0 mm 0.00 in0.0 mm 0.07 in1.8 mm
06:45 AM 57.9°F14.4°C 54.9°F12.7°C 90% 2.6 mph N4.2 kmh N 4.2 mph6.8 kmh 29.83 in1010.2 mb 0.00 in0.0 mm 0.00 in0.0 mm 0.07 in1.8 mm
06:50 AM 58.1°F14.5°C 55.1°F12.8°C 90% 2.4 mph E3.9 kmh E 3.7 mph6.0 kmh 29.83 in1010.2 mb 0.00 in0.0 mm 0.00 in0.0 mm 0.07 in1.8 mm
06:55 AM 58.3°F14.6°C 55.4°F13.0°C 90% 2.9 mph NW4.7 kmh NW 4.2 mph6.8 kmh 29.83 in1010.2 mb 0.00 in0.0 mm 0.00 in0.0 mm 0.07 in1.8 mm
07:00 AM 58.6°F14.8°C 55.7°F13.2°C 90% 3.2 mph W5.1 kmh W 5.3 mph8.5 kmh 29.83 in1010.2 mb 0.00 in0.0 mm 0.00 in0.0 mm 0.07 in1.8 mm
07:05 AM 58.8°F14.9°C 55.6°F13.1°C 89% 2.6 mph NW4.2 kmh NW 4.7 mph7.6 kmh 29.83 in1010.2 mb 0.00 in0.0 mm 0.00 in0.0 mm 0.07 in1.8 mm
07:10 AM 59.3°F15.2°C 55.9°F13.3°C 88% 3.1 mph NNE5.0 kmh NNE 5.3 mph8.5 kmh 29.83 in1010.2 mb 0.00 in0.0 mm 0.00 in0.0 mm 0.07 in1.8 mm
07:15 AM 60.5°F15.8°C 56.0°F13.3°C 85% 3.8 mph E6.1 kmh E 8.9 mph14.3 kmh 29.84 in1010.5 mb 0.00 in0.0 mm 0.00 in0.0 mm 0.07 in1.8 mm
07:20 AM 61.5°F16.4°C 55.8°F13.2°C 82% 4.2 mph NW6.8 kmh NW 6.3 mph10.1 kmh 29.84 in1010.5 mb 0.00 in0.0 mm 0.00 in0.0 mm 0.07 in1.8 mm
07:25 AM 62.4°F16.9°C 55.9°F13.3°C 79% 3.0 mph E4.8 kmh E 5.3 mph8.5 kmh 29.84 in1010.5 mb 0.00 in0.0 mm 0.00 in0.0 mm 0.07 in1.8 mm
07:30 AM 62.9°F17.2°C 55.5°F13.1°C 77% 4.7 mph NNE7.6 kmh NNE 6.8 mph10.9 kmh 29.84 in1010.5 mb 0.00 in0.0 mm 0.00 in0.0 mm 0.07 in1.8 mm
07:35 AM 63.1°F17.3°C 55.2°F12.9°C 75% 4.0 mph SSW6.4 kmh SSW 6.3 mph10.1 kmh 29.84 in1010.5 mb 0.00 in0.0 mm 0.00 in0.0 mm 0.07 in1.8 mm
07:40 AM 63.6°F17.6°C 55.1°F12.8°C 74% 4.2 mph NW6.8 kmh NW 6.8 mph10.9 kmh 29.84 in1010.5 mb 0.00 in0.0 mm 0.00 in0.0 mm 0.07 in1.8 mm
07:45 AM 63.9°F17.7°C 55.0°F12.8°C 73% 3.6 mph NNE5.8 kmh NNE 6.8 mph10.9 kmh 29.84 in1010.5 mb 0.00 in0.0 mm 0.00 in0.0 mm 0.07 in1.8 mm
07:50 AM 64.5°F18.1°C 55.0°F12.8°C 71% 3.8 mph WNW6.1 kmh WNW 6.3 mph10.1 kmh 29.84 in1010.5 mb 0.00 in0.0 mm 0.00 in0.0 mm 0.07 in1.8 mm
07:55 AM 65.0°F18.3°C 55.0°F12.8°C 70% 3.9 mph WSW6.3 kmh WSW 5.8 mph9.3 kmh 29.84 in1010.5 mb 0.00 in0.0 mm 0.00 in0.0 mm 0.07 in1.8 mm
08:00 AM 65.4°F18.6°C 54.6°F12.6°C 68% 4.8 mph E7.7 kmh E 8.3 mph13.4 kmh 29.84 in1010.5 mb 0.00 in0.0 mm 0.00 in0.0 mm 0.07 in1.8 mm
08:05 AM 65.7°F18.7°C 54.7°F12.6°C 68% 3.7 mph ESE6.0 kmh ESE 8.3 mph13.4 kmh 29.84 in1010.5 mb 0.00 in0.0 mm 0.00 in0.0 mm 0.07 in1.8 mm
08:10 AM 66.0°F18.9°C 55.0°F12.8°C 68% 2.8 mph N4.5 kmh N 3.7 mph6.0 kmh 29.84 in1010.5 mb 0.00 in0.0 mm 0.00 in0.0 mm 0.07 in1.8 mm
08:15 AM 66.8°F19.3°C 55.5°F13.1°C 67% 2.3 mph SSE3.7 kmh SSE 3.7 mph6.0 kmh 29.84 in1010.5 mb 0.00 in0.0 mm 0.00 in0.0 mm 0.07 in1.8 mm
08:20 AM 67.4°F19.7°C 55.7°F13.2°C 66% 3.6 mph SW5.8 kmh SW 4.2 mph6.8 kmh 29.84 in1010.5 mb 0.00 in0.0 mm 0.00 in0.0 mm 0.07 in1.8 mm
08:25 AM 67.6°F19.8°C 55.4°F13.0°C 65% 3.3 mph NW5.3 kmh NW 6.3 mph10.1 kmh 29.84 in1010.5 mb 0.00 in0.0 mm 0.00 in0.0 mm 0.07 in1.8 mm
08:30 AM 68.2°F20.1°C 55.6°F13.1°C 64% 3.4 mph N5.5 kmh N 7.8 mph12.6 kmh 29.84 in1010.5 mb 0.00 in0.0 mm 0.00 in0.0 mm 0.07 in1.8 mm
08:35 AM 68.6°F20.3°C 55.2°F12.9°C 62% 3.4 mph S5.5 kmh S 5.3 mph8.5 kmh 29.84 in1010.5 mb 0.00 in0.0 mm 0.00 in0.0 mm 0.07 in1.8 mm
08:40 AM 69.1°F20.6°C 55.9°F13.3°C 63% 2.3 mph SW3.7 kmh SW 3.7 mph6.0 kmh 29.84 in1010.5 mb 0.00 in0.0 mm 0.00 in0.0 mm 0.07 in1.8 mm
08:45 AM 69.6°F20.9°C 56.6°F13.7°C 63% 3.5 mph N5.6 kmh N 5.8 mph9.3 kmh 29.84 in1010.5 mb 0.00 in0.0 mm 0.00 in0.0 mm 0.07 in1.8 mm
08:50 AM 69.3°F20.7°C 55.7°F13.2°C 62% 3.3 mph NNW5.3 kmh NNW 5.3 mph8.5 kmh 29.84 in1010.5 mb 0.00 in0.0 mm 0.00 in0.0 mm 0.07 in1.8 mm
08:55 AM 69.5°F20.8°C 55.7°F13.2°C 62% 3.1 mph SE5.0 kmh SE 4.7 mph7.6 kmh 29.85 in1010.8 mb 0.00 in0.0 mm 0.00 in0.0 mm 0.07 in1.8 mm
09:00 AM 70.0°F21.1°C 56.0°F13.3°C 61% 2.8 mph ESE4.5 kmh ESE 4.2 mph6.8 kmh 29.85 in1010.8 mb 0.00 in0.0 mm 0.00 in0.0 mm 0.07 in1.8 mm
09:05 AM 71.1°F21.7°C 55.7°F13.2°C 58% 2.9 mph WNW4.7 kmh WNW 4.7 mph7.6 kmh 29.84 in1010.5 mb 0.00 in0.0 mm 0.00 in0.0 mm 0.07 in1.8 mm
09:10 AM 71.2°F21.8°C 54.5°F12.5°C 56% 4.4 mph NW7.1 kmh NW 5.8 mph9.3 kmh 29.84 in1010.5 mb 0.00 in0.0 mm 0.00 in0.0 mm 0.07 in1.8 mm
09:15 AM 71.3°F21.8°C 54.4°F12.4°C 55% 4.0 mph WSW6.4 kmh WSW 7.3 mph11.7 kmh 29.84 in1010.5 mb 0.00 in0.0 mm 0.00 in0.0 mm 0.07 in1.8 mm
09:20 AM 71.2°F21.8°C 54.1°F12.3°C 55% 3.5 mph NE5.6 kmh NE 6.3 mph10.1 kmh 29.84 in1010.5 mb 0.00 in0.0 mm 0.00 in0.0 mm 0.07 in1.8 mm
09:25 AM 71.7°F22.1°C 54.7°F12.6°C 55% 3.1 mph NNW5.0 kmh NNW 5.3 mph8.5 kmh 29.84 in1010.5 mb 0.00 in0.0 mm 0.00 in0.0 mm 0.07 in1.8 mm
09:30 AM 72.6°F22.6°C 55.0°F12.8°C 54% 3.3 mph WNW5.3 kmh WNW 4.7 mph7.6 kmh 29.84 in1010.5 mb 0.00 in0.0 mm 0.00 in0.0 mm 0.07 in1.8 mm
09:35 AM 72.7°F22.6°C 54.8°F12.7°C 54% 3.8 mph WNW6.1 kmh WNW 6.8 mph10.9 kmh 29.84 in1010.5 mb 0.00 in0.0 mm 0.00 in0.0 mm 0.07 in1.8 mm
09:40 AM 72.9°F22.7°C 55.0°F12.8°C 53% 3.6 mph WNW5.8 kmh WNW 5.8 mph9.3 kmh 29.84 in1010.5 mb 0.00 in0.0 mm 0.00 in0.0 mm 0.07 in1.8 mm
09:45 AM 73.1°F22.8°C 55.1°F12.8°C 53% 3.6 mph NW5.8 kmh NW 6.8 mph10.9 kmh 29.84 in1010.5 mb 0.00 in0.0 mm 0.00 in0.0 mm 0.07 in1.8 mm
09:50 AM 73.8°F23.2°C 55.2°F12.9°C 52% 3.4 mph NW5.5 kmh NW 4.7 mph7.6 kmh 29.84 in1010.5 mb 0.00 in0.0 mm 0.00 in0.0 mm 0.07 in1.8 mm
09:55 AM 73.9°F23.3°C 54.6°F12.6°C 51% 3.6 mph ESE5.8 kmh ESE 6.3 mph10.1 kmh 29.84 in1010.5 mb 0.00 in0.0 mm 0.00 in0.0 mm 0.07 in1.8 mm
10:00 AM 74.4°F23.6°C 54.6°F12.6°C 50% 3.4 mph NW5.5 kmh NW 4.7 mph7.6 kmh 29.84 in1010.5 mb 0.00 in0.0 mm 0.00 in0.0 mm 0.07 in1.8 mm
10:05 AM 75.1°F23.9°C 54.9°F12.7°C 49% 2.8 mph E4.5 kmh E 4.2 mph6.8 kmh 29.85 in1010.8 mb 0.00 in0.0 mm 0.00 in0.0 mm 0.07 in1.8 mm
10:10 AM 76.4°F24.7°C 55.3°F12.9°C 48% 2.8 mph E4.5 kmh E 4.2 mph6.8 kmh 29.85 in1010.8 mb 0.00 in0.0 mm 0.00 in0.0 mm 0.07 in1.8 mm
10:15 AM 76.5°F24.7°C 55.8°F13.2°C 49% 3.0 mph NNE4.8 kmh NNE 5.3 mph8.5 kmh 29.85 in1010.8 mb 0.00 in0.0 mm 0.00 in0.0 mm 0.07 in1.8 mm
10:20 AM 76.8°F24.9°C 55.9°F13.3°C 49% 2.5 mph WSW4.0 kmh WSW 5.3 mph8.5 kmh 29.85 in1010.8 mb 0.00 in0.0 mm 0.00 in0.0 mm 0.07 in1.8 mm
10:25 AM 76.9°F24.9°C 55.1°F12.8°C 47% 4.0 mph WNW6.4 kmh WNW 6.8 mph10.9 kmh 29.85 in1010.8 mb 0.00 in0.0 mm 0.00 in0.0 mm 0.07 in1.8 mm
10:30 AM 76.6°F24.8°C 54.7°F12.6°C 47% 3.1 mph ENE5.0 kmh ENE 5.3 mph8.5 kmh 29.85 in1010.8 mb 0.00 in0.0 mm 0.00 in0.0 mm 0.07 in1.8 mm
10:35 AM 77.3°F25.2°C 55.1°F12.8°C 46% 3.2 mph NE5.1 kmh NE 5.8 mph9.3 kmh 29.85 in1010.8 mb 0.00 in0.0 mm 0.00 in0.0 mm 0.07 in1.8 mm
10:40 AM 77.5°F25.3°C 55.6°F13.1°C 47% 3.3 mph WSW5.3 kmh WSW 4.7 mph7.6 kmh 29.85 in1010.8 mb 0.00 in0.0 mm 0.00 in0.0 mm 0.07 in1.8 mm
10:45 AM 77.9°F25.5°C 54.9°F12.7°C 45% 3.7 mph WNW6.0 kmh WNW 7.8 mph12.6 kmh 29.85 in1010.8 mb 0.00 in0.0 mm 0.00 in0.0 mm 0.07 in1.8 mm
10:50 AM 77.8°F25.4°C 55.2°F12.9°C 46% 3.2 mph W5.1 kmh W 7.8 mph12.6 kmh 29.85 in1010.8 mb 0.00 in0.0 mm 0.00 in0.0 mm 0.07 in1.8 mm
10:55 AM 78.1°F25.6°C 56.1°F13.4°C 47% 2.6 mph WNW4.2 kmh WNW 4.7 mph7.6 kmh 29.85 in1010.8 mb 0.00 in0.0 mm 0.00 in0.0 mm 0.07 in1.8 mm
11:00 AM 78.1°F25.6°C 55.8°F13.2°C 46% 3.3 mph W5.3 kmh W 5.3 mph8.5 kmh 29.85 in1010.8 mb 0.00 in0.0 mm 0.00 in0.0 mm 0.07 in1.8 mm
11:05 AM 78.5°F25.8°C 56.3°F13.5°C 46% 2.6 mph WNW4.2 kmh WNW 6.8 mph10.9 kmh 29.85 in1010.8 mb 0.00 in0.0 mm 0.00 in0.0 mm 0.07 in1.8 mm
11:10 AM 79.0°F26.1°C 55.4°F13.0°C 44% 3.7 mph NNE6.0 kmh NNE 5.8 mph9.3 kmh 29.85 in1010.8 mb 0.00 in0.0 mm 0.00 in0.0 mm 0.07 in1.8 mm
11:15 AM 78.4°F25.8°C 55.3°F12.9°C 45% 3.9 mph NW6.3 kmh NW 6.8 mph10.9 kmh 29.85 in1010.8 mb 0.00 in0.0 mm 0.00 in0.0 mm 0.07 in1.8 mm
11:20 AM 78.4°F25.8°C 55.3°F12.9°C 45% 3.8 mph NW6.1 kmh NW 5.8 mph9.3 kmh 29.84 in1010.5 mb 0.00 in0.0 mm 0.00 in0.0 mm 0.07 in1.8 mm
11:25 AM 78.5°F25.8°C 55.6°F13.1°C 45% 4.1 mph NW6.6 kmh NW 5.3 mph8.5 kmh 29.84 in1010.5 mb 0.00 in0.0 mm 0.00 in0.0 mm 0.07 in1.8 mm
11:30 AM 79.2°F26.2°C 55.5°F13.1°C 44% 3.3 mph NNW5.3 kmh NNW 6.3 mph10.1 kmh 29.84 in1010.5 mb 0.00 in0.0 mm 0.00 in0.0 mm 0.07 in1.8 mm
11:35 AM 79.3°F26.3°C 55.9°F13.3°C 45% 4.1 mph WNW6.6 kmh WNW 6.8 mph10.9 kmh 29.84 in1010.5 mb 0.00 in0.0 mm 0.00 in0.0 mm 0.07 in1.8 mm
11:40 AM 78.7°F25.9°C 55.4°F13.0°C 45% 4.6 mph NW7.4 kmh NW 6.8 mph10.9 kmh 29.84 in1010.5 mb 0.00 in0.0 mm 0.00 in0.0 mm 0.07 in1.8 mm
11:45 AM 78.6°F25.9°C 54.9°F12.7°C 44% 4.0 mph NW6.4 kmh NW 7.3 mph11.7 kmh 29.84 in1010.5 mb 0.00 in0.0 mm 0.00 in0.0 mm 0.07 in1.8 mm
11:50 AM 79.4°F26.3°C 55.9°F13.3°C 45% 3.1 mph NW5.0 kmh NW 4.7 mph7.6 kmh 29.84 in1010.5 mb 0.00 in0.0 mm 0.00 in0.0 mm 0.07 in1.8 mm
11:55 AM 80.1°F26.7°C 56.3°F13.5°C 44% 3.6 mph NNW5.8 kmh NNW 6.8 mph10.9 kmh 29.84 in1010.5 mb 0.00 in0.0 mm 0.00 in0.0 mm 0.07 in1.8 mm
12:00 PM 80.5°F26.9°C 55.8°F13.2°C 43% 4.0 mph N6.4 kmh N 7.8 mph12.6 kmh 29.84 in1010.5 mb 0.00 in0.0 mm 0.00 in0.0 mm 0.07 in1.8 mm
12:05 PM 80.6°F27.0°C 55.9°F13.3°C 43% 4.2 mph E6.8 kmh E 5.3 mph8.5 kmh 29.84 in1010.5 mb 0.00 in0.0 mm 0.00 in0.0 mm 0.07 in1.8 mm
12:10 PM 80.6°F27.0°C 55.8°F13.2°C 43% 3.4 mph WSW5.5 kmh WSW 6.8 mph10.9 kmh 29.84 in1010.5 mb 0.00 in0.0 mm 0.00 in0.0 mm 0.07 in1.8 mm
12:15 PM 79.5°F26.4°C 55.8°F13.2°C 44% 3.2 mph WSW5.1 kmh WSW 6.3 mph10.1 kmh 29.84 in1010.5 mb 0.00 in0.0 mm 0.00 in0.0 mm 0.07 in1.8 mm
12:20 PM 79.4°F26.3°C 56.2°F13.4°C 45% 2.8 mph W4.5 kmh W 5.3 mph8.5 kmh 29.85 in1010.8 mb 0.00 in0.0 mm 0.00 in0.0 mm 0.07 in1.8 mm
12:25 PM 80.7°F27.1°C 56.0°F13.3°C 43% 3.5 mph NNW5.6 kmh NNW 6.8 mph10.9 kmh 29.85 in1010.8 mb 0.00 in0.0 mm 0.00 in0.0 mm 0.07 in1.8 mm
12:30 PM 79.6°F26.4°C 55.7°F13.2°C 44% 3.2 mph NNW5.1 kmh NNW 5.3 mph8.5 kmh 29.84 in1010.5 mb 0.00 in0.0 mm 0.00 in0.0 mm 0.07 in1.8 mm
12:35 PM 78.8°F26.0°C 55.2°F12.9°C 44% 4.3 mph S6.9 kmh S 6.3 mph10.1 kmh 29.84 in1010.5 mb 0.00 in0.0 mm 0.00 in0.0 mm 0.07 in1.8 mm
12:40 PM 77.7°F25.4°C 55.5°F13.1°C 46% 2.9 mph NW4.7 kmh NW 6.3 mph10.1 kmh 29.84 in1010.5 mb 0.00 in0.0 mm 0.00 in0.0 mm 0.07 in1.8 mm
12:45 PM 78.0°F25.6°C 55.8°F13.2°C 46% 1.9 mph NW3.1 kmh NW 4.2 mph6.8 kmh 29.84 in1010.5 mb 0.00 in0.0 mm 0.00 in0.0 mm 0.07 in1.8 mm
12:50 PM 77.2°F25.1°C 54.8°F12.7°C 46% 3.2 mph N5.1 kmh N 5.8 mph9.3 kmh 29.84 in1010.5 mb 0.00 in0.0 mm 0.00 in0.0 mm 0.07 in1.8 mm
12:55 PM 77.0°F25.0°C 54.7°F12.6°C 46% 2.7 mph E4.3 kmh E 4.2 mph6.8 kmh 29.84 in1010.5 mb 0.00 in0.0 mm 0.00 in0.0 mm 0.07 in1.8 mm
01:00 PM 76.7°F24.8°C 55.2°F12.9°C 47% 2.0 mph SE3.2 kmh SE 3.7 mph6.0 kmh 29.84 in1010.5 mb 0.00 in0.0 mm 0.00 in0.0 mm 0.07 in1.8 mm
01:05 PM 76.9°F24.9°C 55.8°F13.2°C 48% 2.0 mph ESE3.2 kmh ESE 3.2 mph5.1 kmh 29.84 in1010.5 mb 0.00 in0.0 mm 0.00 in0.0 mm 0.07 in1.8 mm
01:10 PM 77.4°F25.2°C 55.8°F13.2°C 47% 2.6 mph N4.2 kmh N 4.7 mph7.6 kmh 29.84 in1010.5 mb 0.00 in0.0 mm 0.00 in0.0 mm 0.07 in1.8 mm
01:15 PM 77.1°F25.1°C 55.5°F13.1°C 47% 0.9 mph SE1.4 kmh SE 5.8 mph9.3 kmh 29.84 in1010.5 mb 0.00 in0.0 mm 0.00 in0.0 mm 0.07 in1.8 mm
01:20 PM 76.4°F24.7°C 55.3°F12.9°C 48% 2.6 mph WNW4.2 kmh WNW 4.2 mph6.8 kmh 29.84 in1010.5 mb 0.00 in0.0 mm 0.00 in0.0 mm 0.07 in1.8 mm
01:25 PM 76.5°F24.7°C 55.3°F12.9°C 48% 2.3 mph WNW3.7 kmh WNW 4.2 mph6.8 kmh 29.84 in1010.5 mb 0.00 in0.0 mm 0.00 in0.0 mm 0.07 in1.8 mm
01:30 PM 78.0°F25.6°C 56.3°F13.5°C 47% 3.0 mph NNW4.8 kmh NNW 5.8 mph9.3 kmh 29.84 in1010.5 mb 0.00 in0.0 mm 0.00 in0.0 mm 0.07 in1.8 mm
01:35 PM 79.8°F26.6°C 56.2°F13.4°C 44% 3.4 mph WNW5.5 kmh WNW 4.7 mph7.6 kmh 29.84 in1010.5 mb 0.00 in0.0 mm 0.00 in0.0 mm 0.07 in1.8 mm
01:40 PM 81.8°F27.7°C 56.6°F13.7°C 42% 2.8 mph WNW4.5 kmh WNW 4.7 mph7.6 kmh 29.83 in1010.2 mb 0.00 in0.0 mm 0.00 in0.0 mm 0.07 in1.8 mm
01:45 PM 82.8°F28.2°C 57.2°F14.0°C 42% 3.0 mph WSW4.8 kmh WSW 4.2 mph6.8 kmh 29.83 in1010.2 mb 0.00 in0.0 mm 0.00 in0.0 mm 0.07 in1.8 mm
01:50 PM 83.4°F28.6°C 56.8°F13.8°C 40% 2.6 mph N4.2 kmh N 3.7 mph6.0 kmh 29.83 in1010.2 mb 0.00 in0.0 mm 0.00 in0.0 mm 0.07 in1.8 mm
01:55 PM 82.3°F27.9°C 56.8°F13.8°C 42% 2.8 mph W4.5 kmh W 6.8 mph10.9 kmh 29.83 in1010.2 mb 0.00 in0.0 mm 0.00 in0.0 mm 0.07 in1.8 mm
02:00 PM 81.8°F27.7°C 56.7°F13.7°C 42% 3.3 mph W5.3 kmh W 6.8 mph10.9 kmh 29.83 in1010.2 mb 0.00 in0.0 mm 0.00 in0.0 mm 0.07 in1.8 mm
02:05 PM 82.2°F27.9°C 57.3°F14.1°C 43% 2.6 mph WNW4.2 kmh WNW 4.2 mph6.8 kmh 29.82 in1009.8 mb 0.00 in0.0 mm 0.00 in0.0 mm 0.07 in1.8 mm
02:10 PM 82.9°F28.3°C 56.9°F13.8°C 41% 4.2 mph NW6.8 kmh NW 6.8 mph10.9 kmh 29.82 in1009.8 mb 0.00 in0.0 mm 0.00 in0.0 mm 0.07 in1.8 mm
02:15 PM 80.9°F27.2°C 56.4°F13.6°C 43% 3.1 mph NNW5.0 kmh NNW 5.3 mph8.5 kmh 29.83 in1010.2 mb 0.00 in0.0 mm 0.00 in0.0 mm 0.07 in1.8 mm
02:20 PM 80.2°F26.8°C 56.6°F13.7°C 44% 2.8 mph NW4.5 kmh NW 5.3 mph8.5 kmh 29.83 in1010.2 mb 0.00 in0.0 mm 0.00 in0.0 mm 0.07 in1.8 mm
02:25 PM 79.9°F26.6°C 56.7°F13.7°C 45% 1.4 mph W2.3 kmh W 4.2 mph6.8 kmh 29.83 in1010.2 mb 0.00 in0.0 mm 0.00 in0.0 mm 0.07 in1.8 mm
02:30 PM 79.6°F26.4°C 56.6°F13.7°C 45% 2.0 mph NW3.2 kmh NW 3.7 mph6.0 kmh 29.83 in1010.2 mb 0.00 in0.0 mm 0.00 in0.0 mm 0.07 in1.8 mm
02:35 PM 79.1°F26.2°C 56.9°F13.8°C 47% 2.9 mph WSW4.7 kmh WSW 5.3 mph8.5 kmh 29.83 in1010.2 mb 0.00 in0.0 mm 0.00 in0.0 mm 0.07 in1.8 mm
02:40 PM 78.3°F25.7°C 57.0°F13.9°C 48% 2.0 mph NW3.2 kmh NW 2.7 mph4.3 kmh 29.84 in1010.5 mb 0.00 in0.0 mm 0.00 in0.0 mm 0.07 in1.8 mm
02:45 PM 77.9°F25.5°C 56.4°F13.6°C 48% 3.2 mph NW5.1 kmh NW 5.8 mph9.3 kmh 29.84 in1010.5 mb 0.00 in0.0 mm 0.00 in0.0 mm 0.07 in1.8 mm
02:50 PM 78.1°F25.6°C 56.8°F13.8°C 48% 2.1 mph NW3.4 kmh NW 2.7 mph4.3 kmh 29.84 in1010.5 mb 0.00 in0.0 mm 0.00 in0.0 mm 0.07 in1.8 mm
02:55 PM 78.0°F25.6°C 56.7°F13.7°C 48% 2.7 mph NW4.3 kmh NW 4.7 mph7.6 kmh 29.84 in1010.5 mb 0.00 in0.0 mm 0.00 in0.0 mm 0.07 in1.8 mm
03:00 PM 77.8°F25.4°C 56.2°F13.4°C 47% 2.9 mph NNW4.7 kmh NNW 4.2 mph6.8 kmh 29.84 in1010.5 mb 0.00 in0.0 mm 0.00 in0.0 mm 0.07 in1.8 mm
03:05 PM 77.5°F25.3°C 56.0°F13.3°C 48% 3.4 mph WNW5.5 kmh WNW 5.8 mph9.3 kmh 29.84 in1010.5 mb 0.00 in0.0 mm 0.00 in0.0 mm 0.07 in1.8 mm
03:10 PM 77.3°F25.2°C 55.7°F13.2°C 47% 2.9 mph WSW4.7 kmh WSW 4.7 mph7.6 kmh 29.84 in1010.5 mb 0.00 in0.0 mm 0.00 in0.0 mm 0.07 in1.8 mm
03:15 PM 77.5°F25.3°C 56.1°F13.4°C 48% 3.3 mph WNW5.3 kmh WNW 4.7 mph7.6 kmh 29.84 in1010.5 mb 0.00 in0.0 mm 0.00 in0.0 mm 0.07 in1.8 mm
03:20 PM 77.4°F25.2°C 55.6°F13.1°C 47% 3.9 mph WNW6.3 kmh WNW 6.3 mph10.1 kmh 29.84 in1010.5 mb 0.00 in0.0 mm 0.00 in0.0 mm 0.07 in1.8 mm
03:25 PM 78.3°F25.7°C 55.9°F13.3°C 46% 3.2 mph WNW5.1 kmh WNW 5.8 mph9.3 kmh 29.84 in1010.5 mb 0.00 in0.0 mm 0.00 in0.0 mm 0.07 in1.8 mm
03:30 PM 79.0°F26.1°C 55.9°F13.3°C 45% 3.0 mph W4.8 kmh W 5.3 mph8.5 kmh 29.84 in1010.5 mb 0.00 in0.0 mm 0.00 in0.0 mm 0.07 in1.8 mm
03:35 PM 79.9°F26.6°C 56.0°F13.3°C 44% 2.8 mph NW4.5 kmh NW 4.2 mph6.8 kmh 29.84 in1010.5 mb 0.00 in0.0 mm 0.00 in0.0 mm 0.07 in1.8 mm
03:40 PM 80.5°F26.9°C 56.2°F13.4°C 43% 3.5 mph SW5.6 kmh SW 6.8 mph10.9 kmh 29.84 in1010.5 mb 0.00 in0.0 mm 0.00 in0.0 mm 0.07 in1.8 mm
03:45 PM 80.0°F26.7°C 55.4°F13.0°C 43% 3.6 mph WNW5.8 kmh WNW 6.3 mph10.1 kmh 29.84 in1010.5 mb 0.00 in0.0 mm 0.00 in0.0 mm 0.07 in1.8 mm
03:50 PM 78.5°F25.8°C 54.7°F12.6°C 44% 3.4 mph N5.5 kmh N 5.3 mph8.5 kmh 29.84 in1010.5 mb 0.00 in0.0 mm 0.00 in0.0 mm 0.07 in1.8 mm
03:55 PM 77.8°F25.4°C 54.8°F12.7°C 45% 3.2 mph WNW5.1 kmh WNW 5.3 mph8.5 kmh 29.84 in1010.5 mb 0.00 in0.0 mm 0.00 in0.0 mm 0.07 in1.8 mm
04:00 PM 77.8°F25.4°C 55.5°F13.1°C 46% 1.9 mph NW3.1 kmh NW 3.2 mph5.1 kmh 29.84 in1010.5 mb 0.00 in0.0 mm 0.00 in0.0 mm 0.07 in1.8 mm
04:05 PM 77.8°F25.4°C 55.3°F12.9°C 46% 4.2 mph NW6.8 kmh NW 6.8 mph10.9 kmh 29.84 in1010.5 mb 0.00 in0.0 mm 0.00 in0.0 mm 0.07 in1.8 mm
04:10 PM 77.3°F25.2°C 54.9°F12.7°C 46% 3.9 mph N6.3 kmh N 5.8 mph9.3 kmh 29.84 in1010.5 mb 0.00 in0.0 mm 0.00 in0.0 mm 0.07 in1.8 mm
04:15 PM 77.1°F25.1°C 55.4°F13.0°C 47% 2.8 mph W4.5 kmh W 4.7 mph7.6 kmh 29.84 in1010.5 mb 0.00 in0.0 mm 0.00 in0.0 mm 0.07 in1.8 mm
04:20 PM 76.7°F24.8°C 55.3°F12.9°C 48% 2.6 mph WNW4.2 kmh WNW 4.7 mph7.6 kmh 29.84 in1010.5 mb 0.00 in0.0 mm 0.00 in0.0 mm 0.07 in1.8 mm
04:25 PM 76.5°F24.7°C 55.0°F12.8°C 48% 2.7 mph W4.3 kmh W 4.2 mph6.8 kmh 29.84 in1010.5 mb 0.00 in0.0 mm 0.00 in0.0 mm 0.07 in1.8 mm
04:30 PM 76.5°F24.7°C 55.7°F13.2°C 49% 1.7 mph W2.7 kmh W 3.7 mph6.0 kmh 29.84 in1010.5 mb 0.00 in0.0 mm 0.00 in0.0 mm 0.07 in1.8 mm
04:35 PM 76.2°F24.6°C 55.7°F13.2°C 49% 2.7 mph W4.3 kmh W 4.2 mph6.8 kmh 29.84 in1010.5 mb 0.00 in0.0 mm 0.00 in0.0 mm 0.07 in1.8 mm
04:40 PM 75.8°F24.3°C 55.5°F13.1°C 50% 2.7 mph W4.3 kmh W 4.2 mph6.8 kmh 29.85 in1010.8 mb 0.00 in0.0 mm 0.00 in0.0 mm 0.07 in1.8 mm
04:45 PM 75.7°F24.3°C 55.4°F13.0°C 49% 2.1 mph WNW3.4 kmh WNW 3.7 mph6.0 kmh 29.85 in1010.8 mb 0.00 in0.0 mm 0.00 in0.0 mm 0.07 in1.8 mm
04:50 PM 76.0°F24.4°C 55.8°F13.2°C 50% 2.0 mph N3.2 kmh N 3.7 mph6.0 kmh 29.85 in1010.8 mb 0.00 in0.0 mm 0.00 in0.0 mm 0.07 in1.8 mm
04:55 PM 76.0°F24.4°C 55.7°F13.2°C 50% 1.5 mph WNW2.4 kmh WNW 3.2 mph5.1 kmh 29.85 in1010.8 mb 0.00 in0.0 mm 0.00 in0.0 mm 0.07 in1.8 mm
05:00 PM 75.9°F24.4°C 56.2°F13.4°C 51% 1.8 mph W2.9 kmh W 4.2 mph6.8 kmh 29.85 in1010.8 mb 0.00 in0.0 mm 0.00 in0.0 mm 0.07 in1.8 mm
05:05 PM 75.9°F24.4°C 56.3°F13.5°C 51% 1.5 mph NW2.4 kmh NW 3.2 mph5.1 kmh 29.86 in1011.2 mb 0.00 in0.0 mm 0.00 in0.0 mm 0.07 in1.8 mm
05:10 PM 75.8°F24.3°C 56.7°F13.7°C 52% 1.8 mph W2.9 kmh W 3.7 mph6.0 kmh 29.86 in1011.2 mb 0.00 in0.0 mm 0.00 in0.0 mm 0.07 in1.8 mm
05:15 PM 75.7°F24.3°C 56.2°F13.4°C 51% 2.8 mph N4.5 kmh N 4.7 mph7.6 kmh 29.86 in1011.2 mb 0.00 in0.0 mm 0.00 in0.0 mm 0.07 in1.8 mm
05:20 PM 75.6°F24.2°C 55.6°F13.1°C 50% 3.4 mph NW5.5 kmh NW 5.3 mph8.5 kmh 29.86 in1011.2 mb 0.00 in0.0 mm 0.00 in0.0 mm 0.07 in1.8 mm
05:25 PM 75.5°F24.2°C 55.8°F13.2°C 50% 2.8 mph NNW4.5 kmh NNW 5.8 mph9.3 kmh 29.86 in1011.2 mb 0.00 in0.0 mm 0.00 in0.0 mm 0.07 in1.8 mm
05:30 PM 75.2°F24.0°C 55.3°F12.9°C 50% 3.1 mph WNW5.0 kmh WNW 4.2 mph6.8 kmh 29.86 in1011.2 mb 0.00 in0.0 mm 0.00 in0.0 mm 0.07 in1.8 mm
05:35 PM 74.9°F23.8°C 55.4°F13.0°C 51% 2.5 mph WNW4.0 kmh WNW 4.7 mph7.6 kmh 29.86 in1011.2 mb 0.00 in0.0 mm 0.00 in0.0 mm 0.07 in1.8 mm
05:40 PM 74.6°F23.7°C 55.3°F12.9°C 51% 2.8 mph W4.5 kmh W 4.7 mph7.6 kmh 29.87 in1011.5 mb 0.00 in0.0 mm 0.00 in0.0 mm 0.07 in1.8 mm
05:45 PM 74.3°F23.5°C 55.0°F12.8°C 51% 3.5 mph NW5.6 kmh NW 8.3 mph13.4 kmh 29.87 in1011.5 mb 0.00 in0.0 mm 0.00 in0.0 mm 0.07 in1.8 mm
05:50 PM 74.1°F23.4°C 55.2°F12.9°C 52% 2.1 mph NW3.4 kmh NW 4.2 mph6.8 kmh 29.87 in1011.5 mb 0.00 in0.0 mm 0.00 in0.0 mm 0.07 in1.8 mm
05:55 PM 73.9°F23.3°C 55.1°F12.8°C 52% 3.1 mph WNW5.0 kmh WNW 5.3 mph8.5 kmh 29.87 in1011.5 mb 0.00 in0.0 mm 0.00 in0.0 mm 0.07 in1.8 mm
06:00 PM 73.7°F23.2°C 55.2°F12.9°C 52% 2.2 mph NW3.5 kmh NW 3.2 mph5.1 kmh 29.87 in1011.5 mb 0.00 in0.0 mm 0.00 in0.0 mm 0.07 in1.8 mm
06:05 PM 73.2°F22.9°C 55.1°F12.8°C 53% 2.7 mph WNW4.3 kmh WNW 4.7 mph7.6 kmh 29.87 in1011.5 mb 0.00 in0.0 mm 0.00 in0.0 mm 0.07 in1.8 mm
06:10 PM 73.0°F22.8°C 54.8°F12.7°C 53% 2.6 mph NW4.2 kmh NW 3.7 mph6.0 kmh 29.87 in1011.5 mb 0.00 in0.0 mm 0.00 in0.0 mm 0.07 in1.8 mm
06:15 PM 72.7°F22.6°C 55.1°F12.8°C 54% 2.2 mph WNW3.5 kmh WNW 4.2 mph6.8 kmh 29.88 in1011.9 mb 0.00 in0.0 mm 0.00 in0.0 mm 0.07 in1.8 mm
06:20 PM 72.3°F22.4°C 54.7°F12.6°C 54% 2.4 mph WNW3.9 kmh WNW 4.7 mph7.6 kmh 29.88 in1011.9 mb 0.00 in0.0 mm 0.00 in0.0 mm 0.07 in1.8 mm
06:25 PM 72.1°F22.3°C 54.7°F12.6°C 54% 1.9 mph WSW3.1 kmh WSW 3.7 mph6.0 kmh 29.88 in1011.9 mb 0.00 in0.0 mm 0.00 in0.0 mm 0.07 in1.8 mm
06:30 PM 71.8°F22.1°C 54.8°F12.7°C 55% 0.9 mph SW1.4 kmh SW 1.7 mph2.7 kmh 29.88 in1011.9 mb 0.00 in0.0 mm 0.00 in0.0 mm 0.07 in1.8 mm
06:35 PM 71.4°F21.9°C 55.0°F12.8°C 56% 0.3 mph NW0.5 kmh NW 1.7 mph2.7 kmh 29.88 in1011.9 mb 0.00 in0.0 mm 0.00 in0.0 mm 0.07 in1.8 mm
06:40 PM 71.1°F21.7°C 54.9°F12.7°C 57% 1.1 mph W1.8 kmh W 3.7 mph6.0 kmh 29.88 in1011.9 mb 0.00 in0.0 mm 0.00 in0.0 mm 0.07 in1.8 mm
06:45 PM 70.8°F21.6°C 54.8°F12.7°C 57% 0.9 mph W1.4 kmh W 2.7 mph4.3 kmh 29.88 in1011.9 mb 0.00 in0.0 mm 0.00 in0.0 mm 0.07 in1.8 mm
06:50 PM 70.4°F21.3°C 54.7°F12.6°C 57% 0.6 mph NW1.0 kmh NW 2.2 mph3.5 kmh 29.89 in1012.2 mb 0.00 in0.0 mm 0.00 in0.0 mm 0.07 in1.8 mm
06:55 PM 70.1°F21.2°C 54.6°F12.6°C 58% 0.7 mph 1.1 kmh 1.7 mph2.7 kmh 29.89 in1012.2 mb 0.00 in0.0 mm 0.00 in0.0 mm 0.07 in1.8 mm
07:00 PM 69.8°F21.0°C 54.8°F12.7°C 59% 0.1 mph NE0.2 kmh NE 1.1 mph1.8 kmh 29.89 in1012.2 mb 0.00 in0.0 mm 0.00 in0.0 mm 0.07 in1.8 mm
07:05 PM 69.4°F20.8°C 54.5°F12.5°C 59% Calm Calm -- 29.89 in1012.2 mb 0.00 in0.0 mm 0.00 in0.0 mm 0.07 in1.8 mm
07:10 PM 69.0°F20.6°C 54.4°F12.4°C 60% Calm Calm -- 29.89 in1012.2 mb 0.00 in0.0 mm 0.00 in0.0 mm 0.07 in1.8 mm
07:15 PM 68.6°F20.3°C 54.3°F12.4°C 60% Calm Calm -- 29.90 in1012.5 mb 0.00 in0.0 mm 0.00 in0.0 mm 0.07 in1.8 mm
07:20 PM 68.1°F20.1°C 54.4°F12.4°C 62% Calm Calm -- 29.90 in1012.5 mb 0.00 in0.0 mm 0.00 in0.0 mm 0.07 in1.8 mm
07:25 PM 67.7°F19.8°C 54.6°F12.6°C 63% Calm Calm -- 29.90 in1012.5 mb 0.00 in0.0 mm 0.00 in0.0 mm 0.07 in1.8 mm
07:30 PM 67.4°F19.7°C 54.6°F12.6°C 64% Calm Calm -- 29.90 in1012.5 mb 0.00 in0.0 mm 0.00 in0.0 mm 0.07 in1.8 mm
07:35 PM 66.9°F19.4°C 54.5°F12.5°C 64% Calm Calm -- 29.90 in1012.5 mb 0.00 in0.0 mm 0.00 in0.0 mm 0.07 in1.8 mm
07:40 PM 66.6°F19.2°C 54.5°F12.5°C 65% Calm Calm -- 29.91 in1012.9 mb 0.00 in0.0 mm 0.00 in0.0 mm 0.07 in1.8 mm
07:45 PM 66.3°F19.1°C 54.4°F12.4°C 66% Calm Calm -- 29.91 in1012.9 mb 0.00 in0.0 mm 0.00 in0.0 mm 0.07 in1.8 mm
07:50 PM 66.0°F18.9°C 54.3°F12.4°C 66% Calm Calm -- 29.91 in1012.9 mb 0.00 in0.0 mm 0.00 in0.0 mm 0.07 in1.8 mm
07:55 PM 65.6°F18.7°C 54.5°F12.5°C 67% Calm Calm -- 29.91 in1012.9 mb 0.00 in0.0 mm 0.00 in0.0 mm 0.07 in1.8 mm
08:00 PM 65.4°F18.6°C 54.5°F12.5°C 68% Calm Calm -- 29.91 in1012.9 mb 0.00 in0.0 mm 0.00 in0.0 mm 0.07 in1.8 mm
08:05 PM 65.2°F18.4°C 54.4°F12.4°C 68% Calm Calm -- 29.92 in1013.2 mb 0.00 in0.0 mm 0.00 in0.0 mm 0.07 in1.8 mm
08:10 PM 64.9°F18.3°C 54.5°F12.5°C 69% Calm Calm -- 29.92 in1013.2 mb 0.00 in0.0 mm 0.00 in0.0 mm 0.07 in1.8 mm
08:15 PM 64.8°F18.2°C 54.4°F12.4°C 69% Calm Calm -- 29.92 in1013.2 mb 0.00 in0.0 mm 0.00 in0.0 mm 0.07 in1.8 mm
08:20 PM 64.8°F18.2°C 54.4°F12.4°C 69% Calm Calm -- 29.92 in1013.2 mb 0.00 in0.0 mm 0.00 in0.0 mm 0.07 in1.8 mm
08:25 PM 64.7°F18.2°C 54.3°F12.4°C 69% Calm Calm -- 29.92 in1013.2 mb 0.00 in0.0 mm 0.00 in0.0 mm 0.07 in1.8 mm
08:30 PM 64.5°F18.1°C 54.1°F12.3°C 69% Calm Calm -- 29.92 in1013.2 mb 0.00 in0.0 mm 0.00 in0.0 mm 0.07 in1.8 mm
08:35 PM 64.3°F17.9°C 54.5°F12.5°C 70% Calm Calm -- 29.92 in1013.2 mb 0.00 in0.0 mm 0.00 in0.0 mm 0.07 in1.8 mm
08:40 PM 64.2°F17.9°C 54.6°F12.6°C 71% Calm Calm -- 29.92 in1013.2 mb 0.00 in0.0 mm 0.00 in0.0 mm 0.07 in1.8 mm
08:45 PM 64.1°F17.8°C 54.6°F12.6°C 71% Calm Calm -- 29.92 in1013.2 mb 0.00 in0.0 mm 0.00 in0.0 mm 0.07 in1.8 mm
08:50 PM 63.9°F17.7°C 54.9°F12.7°C 72% Calm Calm -- 29.93 in1013.5 mb 0.00 in0.0 mm 0.00 in0.0 mm 0.07 in1.8 mm
08:55 PM 63.8°F17.7°C 55.2°F12.9°C 74% Calm Calm -- 29.93 in1013.5 mb 0.00 in0.0 mm 0.00 in0.0 mm 0.07 in1.8 mm
09:00 PM 63.6°F17.6°C 55.5°F13.1°C 75% Calm Calm -- 29.93 in1013.5 mb 0.00 in0.0 mm 0.00 in0.0 mm 0.07 in1.8 mm
09:05 PM 63.5°F17.5°C 55.8°F13.2°C 76% Calm Calm -- 29.93 in1013.5 mb 0.00 in0.0 mm 0.00 in0.0 mm 0.07 in1.8 mm
09:10 PM 63.5°F17.5°C 55.8°F13.2°C 76% Calm Calm -- 29.93 in1013.5 mb 0.00 in0.0 mm 0.00 in0.0 mm 0.07 in1.8 mm
09:15 PM 63.3°F17.4°C 55.6°F13.1°C 76% Calm Calm -- 29.93 in1013.5 mb 0.00 in0.0 mm 0.00 in0.0 mm 0.07 in1.8 mm
09:20 PM 63.1°F17.3°C 55.7°F13.2°C 77% Calm Calm -- 29.93 in1013.5 mb 0.00 in0.0 mm 0.00 in0.0 mm 0.07 in1.8 mm
09:25 PM 63.0°F17.2°C 55.8°F13.2°C 77% Calm Calm -- 29.93 in1013.5 mb 0.00 in0.0 mm 0.00 in0.0 mm 0.07 in1.8 mm
09:30 PM 63.0°F17.2°C 56.0°F13.3°C 78% Calm Calm -- 29.93 in1013.5 mb 0.00 in0.0 mm 0.00 in0.0 mm 0.07 in1.8 mm
09:35 PM 62.9°F17.2°C 56.1°F13.4°C 79% Calm Calm -- 29.93 in1013.5 mb 0.00 in0.0 mm 0.00 in0.0 mm 0.07 in1.8 mm
09:40 PM 62.8°F17.1°C 56.2°F13.4°C 79% Calm Calm -- 29.93 in1013.5 mb 0.00 in0.0 mm 0.00 in0.0 mm 0.07 in1.8 mm
09:45 PM 62.6°F17.0°C 56.3°F13.5°C 80% 0.1 mph N0.2 kmh N 1.1 mph1.8 kmh 29.93 in1013.5 mb 0.00 in0.0 mm 0.00 in0.0 mm 0.07 in1.8 mm
09:50 PM 62.6°F17.0°C 56.6°F13.7°C 81% 0.4 mph WSW0.6 kmh WSW 1.7 mph2.7 kmh 29.93 in1013.5 mb 0.00 in0.0 mm 0.00 in0.0 mm 0.07 in1.8 mm
09:55 PM 62.6°F17.0°C 56.7°F13.7°C 81% 0.1 mph N0.2 kmh N 1.1 mph1.8 kmh 29.93 in1013.5 mb 0.00 in0.0 mm 0.00 in0.0 mm 0.07 in1.8 mm
10:00 PM 63.0°F17.2°C 57.0°F13.9°C 81% Calm Calm -- 29.93 in1013.5 mb 0.00 in0.0 mm 0.00 in0.0 mm 0.07 in1.8 mm
10:05 PM 63.0°F17.2°C 57.1°F13.9°C 81% Calm Calm -- 29.94 in1013.9 mb 0.00 in0.0 mm 0.00 in0.0 mm 0.07 in1.8 mm
10:10 PM 63.2°F17.3°C 57.3°F14.1°C 81% Calm Calm -- 29.94 in1013.9 mb 0.00 in0.0 mm 0.00 in0.0 mm 0.07 in1.8 mm
10:15 PM 63.3°F17.4°C 57.4°F14.1°C 81% Calm Calm -- 29.93 in1013.5 mb 0.00 in0.0 mm 0.00 in0.0 mm 0.07 in1.8 mm
10:20 PM 63.6°F17.6°C 57.6°F14.2°C 81% Calm Calm -- 29.93 in1013.5 mb 0.00 in0.0 mm 0.00 in0.0 mm 0.07 in1.8 mm
10:25 PM 63.9°F17.7°C 57.7°F14.3°C 80% Calm Calm -- 29.93 in1013.5 mb 0.00 in0.0 mm 0.00 in0.0 mm 0.07 in1.8 mm
10:30 PM 64.2°F17.9°C 57.6°F14.2°C 79% Calm Calm -- 29.93 in1013.5 mb 0.00 in0.0 mm 0.00 in0.0 mm 0.07 in1.8 mm
10:35 PM 64.2°F17.9°C 57.5°F14.2°C 79% Calm Calm -- 29.93 in1013.5 mb 0.00 in0.0 mm 0.00 in0.0 mm 0.07 in1.8 mm
10:40 PM 64.2°F17.9°C 57.5°F14.2°C 79% Calm Calm -- 29.94 in1013.9 mb 0.00 in0.0 mm 0.00 in0.0 mm 0.07 in1.8 mm
10:45 PM 64.4°F18.0°C 57.5°F14.2°C 78% Calm Calm -- 29.94 in1013.9 mb 0.00 in0.0 mm 0.00 in0.0 mm 0.07 in1.8 mm
10:50 PM 64.4°F18.0°C 57.4°F14.1°C 78% 1.0 mph SW1.6 kmh SW 2.2 mph3.5 kmh 29.94 in1013.9 mb 0.00 in0.0 mm 0.00 in0.0 mm 0.07 in1.8 mm
10:55 PM 64.5°F18.1°C 57.5°F14.2°C 78% 1.8 mph WSW2.9 kmh WSW 2.2 mph3.5 kmh 29.94 in1013.9 mb 0.00 in0.0 mm 0.00 in0.0 mm 0.07 in1.8 mm
11:00 PM 64.7°F18.2°C 57.7°F14.3°C 78% 1.7 mph WSW2.7 kmh WSW 2.2 mph3.5 kmh 29.94 in1013.9 mb 0.00 in0.0 mm 0.00 in0.0 mm 0.07 in1.8 mm
11:05 PM 64.8°F18.2°C 57.8°F14.3°C 78% 0.8 mph WSW1.3 kmh WSW 1.7 mph2.7 kmh 29.94 in1013.9 mb 0.00 in0.0 mm 0.00 in0.0 mm 0.07 in1.8 mm
11:10 PM 64.8°F18.2°C 57.8°F14.3°C 78% Calm Calm -- 29.94 in1013.9 mb 0.00 in0.0 mm 0.00 in0.0 mm 0.07 in1.8 mm
11:15 PM 64.9°F18.3°C 57.8°F14.3°C 78% Calm Calm -- 29.94 in1013.9 mb 0.00 in0.0 mm 0.00 in0.0 mm 0.07 in1.8 mm
11:20 PM 65.2°F18.4°C 57.9°F14.4°C 77% Calm Calm -- 29.94 in1013.9 mb 0.00 in0.0 mm 0.00 in0.0 mm 0.07 in1.8 mm
11:25 PM 65.3°F18.5°C 57.9°F14.4°C 77% Calm Calm -- 29.94 in1013.9 mb 0.00 in0.0 mm 0.00 in0.0 mm 0.07 in1.8 mm
11:30 PM 65.3°F18.5°C 57.9°F14.4°C 77% Calm Calm -- 29.94 in1013.9 mb 0.00 in0.0 mm 0.00 in0.0 mm 0.07 in1.8 mm
11:35 PM 65.0°F18.3°C 57.7°F14.3°C 77% Calm Calm -- 29.94 in1013.9 mb 0.00 in0.0 mm 0.00 in0.0 mm 0.07 in1.8 mm
11:40 PM 64.9°F18.3°C 57.9°F14.4°C 78% Calm Calm -- 29.95 in1014.2 mb 0.00 in0.0 mm 0.00 in0.0 mm 0.07 in1.8 mm
11:45 PM 64.8°F18.2°C 58.0°F14.4°C 79% Calm Calm -- 29.95 in1014.2 mb 0.00 in0.0 mm 0.00 in0.0 mm 0.07 in1.8 mm
11:50 PM 64.6°F18.1°C 57.9°F14.4°C 79% Calm Calm -- 29.95 in1014.2 mb 0.00 in0.0 mm 0.00 in0.0 mm 0.07 in1.8 mm
11:55 PM 64.3°F17.9°C 57.8°F14.3°C 79% Calm Calm -- 29.95 in1014.2 mb 0.00 in0.0 mm 0.00 in0.0 mm 0.07 in1.8 mm